createdAt,value
2022-12-01T06:48:18.020Z,5.20
2022-12-01T06:50:46.145Z,5.00
2022-12-01T06:53:14.228Z,5.00
2022-12-01T06:55:42.298Z,5.00
2022-12-01T06:58:10.619Z,5.10
2022-12-01T07:00:39.175Z,5.10
2022-12-01T07:03:07.213Z,5.00
2022-12-01T07:05:36.656Z,5.00
2022-12-01T07:08:06.781Z,5.10
2022-12-01T07:10:34.918Z,5.10
2022-12-01T07:13:02.995Z,5.10
2022-12-01T07:15:31.067Z,5.10
2022-12-01T07:17:59.091Z,5.00
2022-12-01T07:20:27.280Z,5.00
2022-12-01T07:22:56.949Z,5.00
2022-12-01T07:25:24.971Z,5.10
2022-12-01T07:27:53.027Z,5.10
2022-12-01T07:30:24.219Z,4.90
2022-12-01T07:32:56.282Z,5.10
2022-12-01T07:35:24.514Z,5.00
2022-12-01T07:37:57.213Z,5.10
2022-12-01T07:40:25.326Z,5.10
2022-12-01T07:42:53.383Z,5.10
2022-12-01T07:45:21.516Z,5.10
2022-12-01T07:47:53.186Z,5.00
2022-12-01T07:50:21.678Z,5.10
2022-12-01T07:52:51.056Z,5.10
2022-12-01T07:55:20.487Z,5.10
2022-12-01T07:57:48.562Z,5.20
2022-12-01T08:00:17.303Z,5.30
2022-12-01T08:02:45.456Z,5.30
2022-12-01T08:05:14.808Z,5.30
2022-12-01T08:07:42.933Z,5.20
2022-12-01T08:10:11.895Z,5.20
2022-12-01T08:12:53.623Z,5.20
2022-12-01T08:15:21.826Z,5.10
2022-12-01T08:17:49.956Z,5.10
2022-12-01T08:20:23.565Z,5.00
2022-12-01T08:22:52.113Z,5.10
2022-12-01T08:25:22.893Z,5.60
2022-12-01T08:27:50.940Z,4.80
2022-12-01T08:30:20.496Z,5.10
2022-12-01T08:32:48.640Z,5.60
2022-12-01T08:35:16.782Z,5.10
2022-12-01T08:37:44.890Z,5.20
2022-12-01T08:40:13.732Z,5.30
2022-12-01T08:42:41.823Z,5.20
2022-12-01T08:45:10.965Z,5.20
2022-12-01T08:47:40.455Z,5.30
2022-12-01T08:50:11.007Z,5.40
2022-12-01T08:52:39.061Z,5.40
2022-12-01T08:55:08.675Z,5.40
2022-12-01T08:57:45.875Z,5.60
2022-12-01T09:00:15.204Z,5.60
2022-12-01T09:07:42.875Z,5.80
2022-12-01T09:10:11.489Z,5.70
2022-12-01T09:12:39.575Z,5.80
2022-12-01T09:15:08.505Z,6.00
2022-12-01T09:17:36.536Z,6.30
2022-12-01T09:20:07.350Z,6.00
2022-12-01T09:22:35.459Z,6.30
2022-12-01T09:25:03.552Z,6.20
2022-12-01T09:27:31.602Z,6.10
2022-12-01T09:29:59.774Z,6.10
2022-12-01T09:32:27.870Z,6.20
2022-12-01T09:34:55.994Z,6.20
2022-12-01T09:37:25.454Z,6.40
2022-12-01T09:39:53.534Z,6.40
2022-12-01T09:42:32.222Z,6.30
2022-12-01T09:45:04.968Z,6.40
2022-12-01T09:47:36.088Z,6.40
2022-12-01T09:50:08.059Z,6.40
2022-12-01T09:52:44.060Z,6.40
2022-12-01T09:57:43.352Z,6.40
2022-12-01T10:00:16.401Z,6.40
2022-12-01T10:02:49.902Z,6.30
2022-12-01T10:05:21.091Z,6.60
2022-12-01T10:07:56.930Z,6.60
2022-12-01T10:10:28.999Z,7.30
2022-12-01T10:12:57.515Z,7.40
2022-12-01T10:15:38.079Z,6.90
2022-12-01T10:18:22.829Z,6.90
2022-12-01T10:21:03.775Z,6.90
2022-12-01T10:23:45.223Z,6.80
2022-12-01T10:26:17.138Z,6.70
2022-12-01T10:28:55.099Z,6.80
2022-12-01T10:31:36.871Z,7.40
2022-12-01T10:34:09.058Z,6.80
2022-12-01T10:36:37.395Z,7.50
2022-12-01T10:39:08.316Z,6.70
2022-12-01T10:41:40.140Z,6.80
2022-12-01T10:44:09.676Z,6.80
2022-12-01T10:46:44.633Z,6.80
2022-12-01T10:49:14.941Z,6.90
2022-12-01T10:51:54.926Z,6.60
2022-12-01T10:54:32.950Z,7.60
2022-12-01T10:57:02.108Z,7.30
2022-12-01T10:59:35.527Z,6.90
2022-12-01T11:02:07.397Z,7.00
2022-12-01T11:04:45.211Z,7.90
2022-12-01T11:07:19.366Z,6.90
2022-12-01T11:10:04.388Z,7.30
2022-12-01T11:12:34.008Z,7.30
2022-12-01T11:17:34.180Z,7.40
2022-12-01T11:20:26.113Z,7.80
2022-12-01T11:22:54.538Z,7.60
2022-12-01T11:25:23.941Z,8.10
2022-12-01T11:27:57.505Z,8.20
2022-12-01T11:30:27.620Z,7.40
2022-12-01T11:32:59.177Z,7.60
2022-12-01T11:35:30.931Z,8.30
2022-12-01T11:40:53.940Z,7.70
2022-12-01T11:43:26.035Z,7.80
2022-12-01T11:45:55.501Z,8.10
2022-12-01T11:48:28.411Z,7.70
2022-12-01T11:51:05.853Z,7.90
2022-12-01T11:53:35.696Z,7.60
2022-12-01T11:56:20.877Z,7.60
2022-12-01T11:58:50.687Z,8.00
2022-12-01T12:01:31.019Z,8.30
2022-12-01T12:06:40.831Z,7.70
2022-12-01T12:09:34.236Z,8.20
2022-12-01T12:12:13.512Z,7.90
2022-12-01T12:14:51.464Z,7.80
2022-12-01T12:17:27.905Z,8.30
2022-12-01T12:20:17.497Z,7.90
2022-12-01T12:22:56.832Z,8.40
2022-12-01T12:25:32.823Z,8.50
2022-12-01T12:28:20.771Z,8.10
2022-12-01T12:30:58.854Z,8.30
2022-12-01T12:34:08.940Z,8.20
2022-12-01T12:36:47.047Z,8.00
2022-12-01T12:39:32.749Z,8.20
2022-12-01T12:42:05.781Z,8.20
2022-12-01T12:44:47.980Z,8.00
2022-12-01T12:47:32.009Z,7.90
2022-12-01T12:50:10.757Z,8.00
2022-12-01T12:52:41.827Z,8.10
2022-12-01T12:55:16.120Z,7.70
2022-12-01T12:57:49.863Z,7.90
2022-12-01T13:00:22.832Z,7.80
2022-12-01T13:02:55.640Z,7.90
2022-12-01T13:05:28.797Z,7.80
2022-12-01T13:08:02.295Z,7.80
2022-12-01T13:10:37.385Z,7.80
2022-12-01T13:13:24.424Z,7.50
2022-12-01T13:15:56.927Z,7.60
2022-12-01T13:18:30.709Z,7.30
2022-12-01T13:20:59.436Z,7.50
2022-12-01T13:23:27.975Z,6.70
2022-12-01T13:25:58.370Z,7.40
2022-12-01T13:28:29.459Z,7.10
2022-12-01T13:31:04.707Z,7.80
2022-12-01T13:33:34.053Z,7.60
2022-12-01T13:36:44.571Z,7.80
2022-12-01T13:39:00.480Z,7.50
2022-12-01T13:41:33.286Z,7.60
2022-12-01T13:44:04.782Z,7.80
2022-12-01T13:46:52.056Z,7.80
2022-12-01T13:49:48.438Z,7.20
2022-12-01T13:55:29.939Z,7.40
2022-12-01T13:58:24.464Z,7.60
2022-12-01T14:00:52.813Z,7.50
2022-12-01T14:03:41.856Z,7.90
2022-12-01T14:06:26.542Z,7.60
2022-12-01T14:08:58.663Z,7.80
2022-12-01T14:11:28.697Z,7.50
2022-12-01T14:14:02.779Z,7.10
2022-12-01T14:16:47.017Z,7.70
2022-12-01T14:19:29.668Z,7.50
2022-12-01T14:21:58.537Z,7.80
2022-12-01T14:24:31.327Z,7.90
2022-12-01T14:26:59.573Z,7.70
2022-12-01T14:29:33.276Z,7.80
2022-12-01T14:32:23.497Z,7.00
2022-12-01T14:35:00.579Z,7.10
2022-12-01T14:37:38.343Z,6.60
2022-12-01T14:40:12.590Z,6.80
2022-12-01T14:43:01.661Z,6.90
2022-12-01T14:45:35.763Z,7.20
2022-12-01T14:48:06.232Z,6.60
2022-12-01T14:50:46.632Z,6.90
2022-12-01T14:53:23.635Z,7.20
2022-12-01T14:55:56.559Z,7.50
2022-12-01T14:58:27.930Z,6.90
2022-12-01T15:01:05.784Z,6.90
2022-12-01T15:03:38.306Z,6.80
2022-12-01T15:06:08.532Z,6.90
2022-12-01T15:08:49.294Z,6.90
2022-12-01T15:11:28.501Z,6.90
2022-12-01T15:13:58.143Z,6.80
2022-12-01T15:16:30.235Z,6.60
2022-12-01T15:18:58.385Z,6.90
2022-12-01T15:21:30.023Z,6.50
2022-12-01T15:24:00.293Z,6.60
2022-12-01T15:26:31.036Z,6.50
2022-12-01T15:29:06.658Z,6.50
2022-12-01T15:31:36.522Z,6.50
2022-12-01T15:34:04.947Z,6.80
2022-12-01T15:36:34.605Z,6.80
2022-12-01T15:39:07.082Z,7.20
2022-12-01T15:41:39.971Z,6.70
2022-12-01T15:44:20.667Z,6.40
2022-12-01T15:46:49.006Z,7.00
2022-12-01T15:49:27.337Z,6.40
2022-12-01T15:52:05.747Z,6.30
2022-12-01T15:54:34.327Z,6.90
2022-12-01T15:57:03.518Z,6.30
2022-12-01T15:59:37.086Z,6.20
2022-12-01T16:02:26.123Z,6.40
2022-12-01T16:05:05.611Z,6.90
2022-12-01T16:08:12.271Z,6.30
2022-12-01T16:10:31.487Z,6.40
2022-12-01T16:13:37.054Z,6.10
2022-12-01T16:16:27.692Z,6.40
2022-12-01T16:18:57.900Z,6.40
2022-12-01T16:21:26.797Z,6.50
2022-12-01T16:24:04.766Z,6.60
2022-12-01T16:26:34.587Z,7.00
2022-12-01T16:29:02.679Z,6.10
2022-12-01T16:31:30.852Z,6.10
2022-12-01T16:34:18.541Z,6.20
2022-12-01T16:36:52.060Z,6.30
2022-12-01T16:39:21.482Z,6.20
2022-12-01T16:41:49.625Z,6.60
2022-12-01T16:44:28.543Z,6.40
2022-12-01T16:46:57.234Z,5.90
2022-12-01T16:49:25.604Z,6.10
2022-12-01T16:51:56.461Z,6.60
2022-12-01T16:54:26.727Z,6.40
2022-12-01T16:56:54.871Z,6.10
2022-12-01T16:59:22.950Z,6.50
2022-12-01T17:01:51.077Z,6.50
2022-12-01T17:04:19.263Z,6.50
2022-12-01T17:06:47.422Z,6.40
2022-12-01T17:09:15.483Z,6.00
2022-12-01T17:11:45.173Z,6.40
2022-12-01T17:14:13.498Z,6.00
2022-12-01T17:16:41.576Z,5.90
2022-12-01T17:19:09.620Z,5.90
2022-12-01T17:21:37.804Z,6.20
2022-12-01T17:24:06.302Z,5.90
2022-12-01T17:26:34.557Z,6.10
2022-12-01T17:29:04.587Z,5.90
2022-12-01T17:31:32.733Z,5.90
2022-12-01T17:34:00.881Z,6.30
2022-12-01T17:36:28.986Z,5.90
2022-12-01T17:38:58.620Z,6.20
2022-12-01T17:41:32.174Z,6.50
2022-12-01T17:44:04.376Z,5.80
2022-12-01T17:46:32.963Z,6.60
2022-12-01T17:49:01.123Z,6.40
2022-12-01T17:51:29.239Z,5.80
2022-12-01T17:53:57.272Z,5.80
2022-12-01T17:56:25.362Z,5.80
2022-12-01T17:58:53.399Z,6.60
2022-12-01T18:01:29.782Z,5.70
2022-12-01T18:03:59.025Z,6.30
2022-12-01T18:06:27.881Z,5.00
2022-12-01T18:08:57.412Z,5.70
2022-12-01T18:11:25.519Z,6.50
2022-12-01T18:13:53.791Z,6.40
2022-12-01T18:16:25.193Z,6.10
2022-12-01T18:18:54.186Z,5.70
2022-12-01T18:21:23.995Z,6.50
2022-12-01T18:23:52.732Z,6.30
2022-12-01T18:26:22.421Z,6.50
2022-12-01T18:28:55.671Z,5.70
2022-12-01T18:31:26.330Z,6.10
2022-12-01T18:33:54.644Z,6.20
2022-12-01T18:36:24.895Z,6.50
2022-12-01T18:38:54.548Z,5.80
2022-12-01T18:41:22.700Z,6.50
2022-12-01T18:43:51.081Z,6.50
2022-12-01T18:46:20.724Z,6.30
2022-12-01T18:48:55.596Z,6.50
2022-12-01T18:51:24.520Z,5.80
2022-12-01T18:53:54.770Z,5.50
2022-12-01T18:56:23.180Z,5.80
2022-12-01T18:58:55.903Z,5.70
2022-12-01T19:01:26.447Z,6.30
2022-12-01T19:03:57.963Z,5.70
2022-12-01T19:06:27.248Z,5.60
2022-12-01T19:08:55.649Z,5.70
2022-12-01T19:11:23.923Z,6.20
2022-12-01T19:13:51.938Z,6.10
2022-12-01T19:16:20.934Z,5.60
2022-12-01T19:18:49.057Z,5.80
2022-12-01T19:21:20.423Z,5.80
2022-12-01T19:23:48.769Z,6.40
2022-12-01T19:26:20.560Z,5.90
2022-12-01T19:28:49.170Z,6.40
2022-12-01T19:31:19.839Z,5.90
2022-12-01T19:33:48.309Z,6.00
2022-12-01T19:36:19.783Z,6.00
2022-12-01T19:38:48.359Z,5.70
2022-12-01T19:41:20.356Z,6.50
2022-12-01T19:43:49.114Z,5.70
2022-12-01T19:46:19.080Z,6.60
2022-12-01T19:48:47.743Z,5.90
2022-12-01T19:51:21.686Z,5.70
2022-12-01T19:53:49.826Z,6.40
2022-12-01T19:56:18.099Z,5.70
2022-12-01T19:58:46.194Z,5.80
2022-12-01T20:01:16.583Z,5.70
2022-12-01T20:03:47.601Z,5.60
2022-12-01T20:06:17.704Z,6.40
2022-12-01T20:08:47.677Z,5.60
2022-12-01T20:11:16.292Z,5.70
2022-12-01T20:13:47.502Z,5.10
2022-12-01T20:16:17.550Z,5.60
2022-12-01T20:18:46.278Z,5.70
2022-12-01T20:21:17.677Z,6.10
2022-12-01T20:23:50.167Z,5.60
2022-12-01T20:26:20.359Z,5.90
2022-12-01T20:28:50.640Z,6.00
2022-12-01T20:31:22.025Z,5.60
2022-12-01T20:33:50.549Z,5.60
2022-12-01T20:36:19.753Z,6.50
2022-12-01T20:38:49.423Z,5.70
2022-12-01T20:41:18.950Z,5.50
2022-12-01T20:43:47.027Z,5.50
2022-12-01T20:46:16.203Z,5.30
2022-12-01T20:48:44.515Z,5.20
2022-12-01T20:51:14.298Z,5.20
2022-12-01T20:53:59.645Z,6.30
2022-12-01T20:56:32.240Z,6.00
2022-12-01T20:59:00.676Z,5.40
2022-12-01T21:01:28.795Z,5.50
2022-12-01T21:03:56.871Z,6.10
2022-12-01T21:06:25.423Z,5.20
2022-12-01T21:08:53.550Z,5.20
2022-12-01T21:11:44.536Z,5.10
2022-12-01T21:14:18.541Z,5.20
2022-12-01T21:16:49.365Z,6.20
2022-12-01T21:19:23.757Z,5.20
2022-12-01T21:21:51.873Z,5.30
2022-12-01T21:26:53.295Z,5.30
2022-12-01T21:29:24.896Z,5.60
2022-12-01T21:31:54.812Z,5.50
2022-12-01T21:34:25.913Z,5.10
2022-12-01T21:36:57.645Z,5.30
2022-12-01T21:39:27.416Z,5.10
2022-12-01T21:41:57.793Z,5.10
2022-12-01T21:44:33.674Z,5.00
2022-12-01T21:47:14.069Z,6.00
2022-12-01T21:49:42.295Z,4.90
2022-12-01T21:52:15.943Z,5.00
2022-12-01T21:54:44.023Z,5.60
2022-12-01T21:57:42.977Z,5.60
2022-12-01T22:00:30.762Z,5.10
2022-12-01T22:03:22.832Z,5.10
2022-12-01T22:06:21.376Z,5.10
2022-12-01T22:08:44.164Z,5.70
2022-12-01T22:11:18.545Z,5.80
2022-12-01T22:13:50.992Z,5.00
2022-12-01T22:16:26.446Z,5.60
2022-12-01T22:18:56.621Z,5.10
2022-12-01T22:21:33.799Z,5.50
2022-12-01T22:24:37.866Z,5.40
2022-12-01T22:27:29.807Z,5.30
2022-12-01T22:30:00.417Z,5.10
2022-12-01T22:32:39.073Z,5.10
2022-12-01T22:35:22.578Z,5.80
2022-12-01T22:37:52.327Z,5.00
2022-12-01T22:40:39.028Z,5.10
2022-12-01T22:43:44.936Z,5.90
2022-12-01T22:46:32.200Z,5.10
2022-12-01T22:49:09.425Z,5.10
2022-12-01T22:51:42.581Z,5.10
2022-12-01T22:56:58.795Z,5.10
2022-12-01T22:59:33.753Z,5.10
2022-12-01T23:02:03.622Z,5.10
2022-12-01T23:04:38.941Z,5.10
2022-12-01T23:07:10.441Z,5.00
2022-12-01T23:09:42.128Z,5.80
2022-12-01T23:14:55.496Z,5.00
2022-12-01T23:17:25.961Z,5.00
2022-12-01T23:20:02.273Z,5.10
2022-12-01T23:22:30.316Z,5.10
2022-12-01T23:25:13.162Z,5.10
2022-12-01T23:27:41.677Z,5.10
2022-12-01T23:30:11.300Z,5.00
2022-12-01T23:32:39.763Z,5.20
2022-12-01T23:35:16.348Z,5.00
2022-12-01T23:37:47.432Z,5.00
2022-12-01T23:42:46.842Z,4.90
2022-12-01T23:47:46.626Z,4.80
2022-12-01T23:50:21.403Z,4.60
2022-12-01T23:52:49.467Z,4.80
2022-12-01T23:55:22.814Z,4.70
2022-12-01T23:57:52.436Z,4.70
